sensor_id;sensor_type;location;lat;lon;timestamp;pressure;altitude;pressure_sealevel;temperature;humidity
55675;BME280;41562;44.330;23.802;2024-02-21T00:00:49;100948.88;;;7.35;100.00
55675;BME280;41562;44.330;23.802;2024-02-21T00:03:16;100950.03;;;7.27;100.00
55675;BME280;41562;44.330;23.802;2024-02-21T00:05:44;100959.41;;;7.07;100.00
55675;BME280;41562;44.330;23.802;2024-02-21T00:08:11;100942.06;;;7.16;100.00
55675;BME280;41562;44.330;23.802;2024-02-21T00:10:38;100945.41;;;7.00;100.00
55675;BME280;41562;44.330;23.802;2024-02-21T00:13:06;100939.19;;;6.94;100.00
55675;BME280;41562;44.330;23.802;2024-02-21T00:15:33;100928.28;;;6.84;100.00
55675;BME280;41562;44.330;23.802;2024-02-21T00:18:00;100928.19;;;6.91;100.00
55675;BME280;41562;44.330;23.802;2024-02-21T00:20:28;100927.34;;;6.78;100.00
55675;BME280;41562;44.330;23.802;2024-02-21T00:22:56;100926.00;;;6.88;100.00
55675;BME280;41562;44.330;23.802;2024-02-21T00:25:23;100925.28;;;6.80;100.00
55675;BME280;41562;44.330;23.802;2024-02-21T00:27:50;100925.41;;;6.85;100.00
55675;BME280;41562;44.330;23.802;2024-02-21T00:30:18;100926.53;;;6.78;100.00
55675;BME280;41562;44.330;23.802;2024-02-21T00:32:46;100924.56;;;6.73;100.00
55675;BME280;41562;44.330;23.802;2024-02-21T00:35:14;100930.69;;;6.74;100.00
55675;BME280;41562;44.330;23.802;2024-02-21T00:37:41;100924.13;;;6.76;100.00
55675;BME280;41562;44.330;23.802;2024-02-21T00:40:09;100915.56;;;6.74;100.00
55675;BME280;41562;44.330;23.802;2024-02-21T00:42:37;100914.75;;;6.74;100.00
55675;BME280;41562;44.330;23.802;2024-02-21T00:45:04;100910.00;;;6.64;100.00
55675;BME280;41562;44.330;23.802;2024-02-21T00:47:32;100910.34;;;6.68;100.00
55675;BME280;41562;44.330;23.802;2024-02-21T00:49:59;100912.31;;;6.72;100.00
55675;BME280;41562;44.330;23.802;2024-02-21T00:52:27;100904.00;;;6.69;100.00
55675;BME280;41562;44.330;23.802;2024-02-21T00:54:54;100900.88;;;6.60;100.00
55675;BME280;41562;44.330;23.802;2024-02-21T00:57:21;100908.84;;;6.60;100.00
55675;BME280;41562;44.330;23.802;2024-02-21T00:59:49;100900.66;;;6.62;100.00
55675;BME280;41562;44.330;23.802;2024-02-21T01:02:16;100903.66;;;6.65;100.00
55675;BME280;41562;44.330;23.802;2024-02-21T01:04:44;100898.91;;;6.67;100.00
55675;BME280;41562;44.330;23.802;2024-02-21T01:07:11;100907.47;;;6.69;100.00
55675;BME280;41562;44.330;23.802;2024-02-21T01:09:38;100900.88;;;6.72;100.00
55675;BME280;41562;44.330;23.802;2024-02-21T01:12:06;100901.69;;;6.72;100.00
55675;BME280;41562;44.330;23.802;2024-02-21T01:14:33;100896.47;;;6.66;100.00
55675;BME280;41562;44.330;23.802;2024-02-21T01:17:00;100899.16;;;6.77;100.00
55675;BME280;41562;44.330;23.802;2024-02-21T01:19:28;100892.91;;;6.72;100.00
55675;BME280;41562;44.330;23.802;2024-02-21T01:21:55;100896.84;;;6.69;100.00
55675;BME280;41562;44.330;23.802;2024-02-21T01:24:22;100889.22;;;6.73;100.00
55675;BME280;41562;44.330;23.802;2024-02-21T01:26:50;100889.44;;;6.71;100.00
55675;BME280;41562;44.330;23.802;2024-02-21T01:29:17;100885.03;;;6.65;100.00
55675;BME280;41562;44.330;23.802;2024-02-21T01:31:44;100891.88;;;6.73;100.00
55675;BME280;41562;44.330;23.802;2024-02-21T01:34:11;100889.59;;;6.76;100.00
55675;BME280;41562;44.330;23.802;2024-02-21T01:36:39;100887.81;;;6.59;100.00
55675;BME280;41562;44.330;23.802;2024-02-21T01:39:06;100885.84;;;6.66;100.00
55675;BME280;41562;44.330;23.802;2024-02-21T01:41:33;100891.75;;;6.56;100.00
55675;BME280;41562;44.330;23.802;2024-02-21T01:44:01;100881.66;;;6.46;100.00
55675;BME280;41562;44.330;23.802;2024-02-21T01:46:28;100884.81;;;6.55;100.00
55675;BME280;41562;44.330;23.802;2024-02-21T01:48:56;100879.03;;;6.58;100.00
55675;BME280;41562;44.330;23.802;2024-02-21T01:51:24;100874.25;;;6.37;100.00
55675;BME280;41562;44.330;23.802;2024-02-21T01:53:53;100868.94;;;6.37;100.00
55675;BME280;41562;44.330;23.802;2024-02-21T01:56:22;100869.28;;;6.29;100.00
55675;BME280;41562;44.330;23.802;2024-02-21T01:58:51;100871.06;;;6.58;100.00
55675;BME280;41562;44.330;23.802;2024-02-21T02:01:18;100873.03;;;6.51;100.00
55675;BME280;41562;44.330;23.802;2024-02-21T02:03:49;100873.31;;;6.31;100.00
55675;BME280;41562;44.330;23.802;2024-02-21T02:06:17;100869.38;;;6.22;100.00
55675;BME280;41562;44.330;23.802;2024-02-21T02:08:44;100866.03;;;6.27;100.00
55675;BME280;41562;44.330;23.802;2024-02-21T02:11:13;100869.59;;;6.21;100.00
55675;BME280;41562;44.330;23.802;2024-02-21T02:13:41;100875.06;;;6.07;100.00
55675;BME280;41562;44.330;23.802;2024-02-21T02:16:09;100872.47;;;5.89;100.00
55675;BME280;41562;44.330;23.802;2024-02-21T02:18:36;100858.84;;;6.16;100.00
55675;BME280;41562;44.330;23.802;2024-02-21T02:21:10;100857.22;;;6.15;100.00
55675;BME280;41562;44.330;23.802;2024-02-21T02:23:38;100868.91;;;5.95;100.00
55675;BME280;41562;44.330;23.802;2024-02-21T02:26:05;100875.84;;;5.96;100.00
55675;BME280;41562;44.330;23.802;2024-02-21T02:28:33;100881.44;;;6.07;100.00
55675;BME280;41562;44.330;23.802;2024-02-21T02:31:00;100875.50;;;5.93;100.00
55675;BME280;41562;44.330;23.802;2024-02-21T02:33:27;100878.19;;;6.04;100.00
55675;BME280;41562;44.330;23.802;2024-02-21T02:35:55;100885.13;;;6.05;100.00
55675;BME280;41562;44.330;23.802;2024-02-21T02:38:22;100880.53;;;6.13;100.00
55675;BME280;41562;44.330;23.802;2024-02-21T02:40:49;100885.00;;;6.00;100.00
55675;BME280;41562;44.330;23.802;2024-02-21T02:43:17;100876.63;;;5.67;100.00
55675;BME280;41562;44.330;23.802;2024-02-21T02:45:44;100882.72;;;5.68;100.00
55675;BME280;41562;44.330;23.802;2024-02-21T02:48:12;100879.25;;;5.85;100.00
55675;BME280;41562;44.330;23.802;2024-02-21T02:50:39;100880.16;;;5.61;100.00
55675;BME280;41562;44.330;23.802;2024-02-21T02:53:06;100883.53;;;5.68;100.00
55675;BME280;41562;44.330;23.802;2024-02-21T02:55:34;100875.75;;;5.55;100.00
55675;BME280;41562;44.330;23.802;2024-02-21T02:58:01;100877.72;;;5.41;100.00
55675;BME280;41562;44.330;23.802;2024-02-21T03:00:28;100876.31;;;5.57;100.00
55675;BME280;41562;44.330;23.802;2024-02-21T03:02:56;100886.63;;;5.47;100.00
55675;BME280;41562;44.330;23.802;2024-02-21T03:05:23;100886.03;;;5.45;100.00
55675;BME280;41562;44.330;23.802;2024-02-21T03:07:51;100885.47;;;5.43;100.00
55675;BME280;41562;44.330;23.802;2024-02-21T03:10:18;100885.16;;;5.33;100.00
55675;BME280;41562;44.330;23.802;2024-02-21T03:12:46;100883.16;;;5.28;100.00
55675;BME280;41562;44.330;23.802;2024-02-21T03:15:14;100882.63;;;5.19;100.00
55675;BME280;41562;44.330;23.802;2024-02-21T03:17:41;100885.53;;;5.18;100.00
55675;BME280;41562;44.330;23.802;2024-02-21T03:20:09;100875.13;;;5.16;100.00
55675;BME280;41562;44.330;23.802;2024-02-21T03:22:40;100887.66;;;5.28;100.00
55675;BME280;41562;44.330;23.802;2024-02-21T03:25:08;100882.00;;;5.24;100.00
55675;BME280;41562;44.330;23.802;2024-02-21T03:27:36;100889.88;;;5.31;100.00
55675;BME280;41562;44.330;23.802;2024-02-21T03:30:04;100891.94;;;5.29;100.00
55675;BME280;41562;44.330;23.802;2024-02-21T03:32:32;100885.63;;;5.30;100.00
55675;BME280;41562;44.330;23.802;2024-02-21T03:34:59;100885.28;;;5.19;100.00
55675;BME280;41562;44.330;23.802;2024-02-21T03:37:27;100885.28;;;5.19;100.00
55675;BME280;41562;44.330;23.802;2024-02-21T03:39:54;100883.53;;;5.32;100.00
55675;BME280;41562;44.330;23.802;2024-02-21T03:42:21;100893.47;;;5.18;100.00
55675;BME280;41562;44.330;23.802;2024-02-21T03:44:49;100893.69;;;5.16;100.00
55675;BME280;41562;44.330;23.802;2024-02-21T03:47:16;100891.72;;;5.30;100.00
55675;BME280;41562;44.330;23.802;2024-02-21T03:49:43;100884.72;;;5.36;100.00
55675;BME280;41562;44.330;23.802;2024-02-21T03:52:11;100885.75;;;5.35;100.00
55675;BME280;41562;44.330;23.802;2024-02-21T03:54:38;100888.84;;;5.32;100.00
55675;BME280;41562;44.330;23.802;2024-02-21T03:57:05;100889.88;;;5.31;100.00
55675;BME280;41562;44.330;23.802;2024-02-21T03:59:33;100891.13;;;5.28;100.00
55675;BME280;41562;44.330;23.802;2024-02-21T04:02:00;100894.94;;;5.32;100.00
55675;BME280;41562;44.330;23.802;2024-02-21T04:04:27;100902.19;;;5.43;100.00
55675;BME280;41562;44.330;23.802;2024-02-21T04:06:54;100897.69;;;5.44;100.00
55675;BME280;41562;44.330;23.802;2024-02-21T04:09:22;100896.06;;;5.43;100.00
55675;BME280;41562;44.330;23.802;2024-02-21T04:11:49;100889.56;;;5.39;100.00
55675;BME280;41562;44.330;23.802;2024-02-21T04:14:16;100885.91;;;5.40;100.00
55675;BME280;41562;44.330;23.802;2024-02-21T04:16:44;100886.03;;;5.45;100.00
55675;BME280;41562;44.330;23.802;2024-02-21T04:19:11;100876.31;;;5.57;100.00
55675;BME280;41562;44.330;23.802;2024-02-21T04:21:38;100879.56;;;5.22;100.00
55675;BME280;41562;44.330;23.802;2024-02-21T04:24:06;100884.06;;;5.22;100.00
55675;BME280;41562;44.330;23.802;2024-02-21T04:26:34;100879.41;;;5.17;100.00
55675;BME280;41562;44.330;23.802;2024-02-21T04:29:01;100882.56;;;5.44;100.00
55675;BME280;41562;44.330;23.802;2024-02-21T04:31:29;100891.56;;;5.25;100.00
55675;BME280;41562;44.330;23.802;2024-02-21T04:33:59;100880.13;;;5.06;100.00
55675;BME280;41562;44.330;23.802;2024-02-21T04:36:26;100886.03;;;5.08;100.00
55675;BME280;41562;44.330;23.802;2024-02-21T04:38:53;100879.56;;;5.22;100.00
55675;BME280;41562;44.330;23.802;2024-02-21T04:41:21;100880.38;;;4.80;100.00
55675;BME280;41562;44.330;23.802;2024-02-21T04:43:48;100884.69;;;4.74;100.00
55675;BME280;41562;44.330;23.802;2024-02-21T04:46:16;100879.50;;;4.86;100.00
55675;BME280;41562;44.330;23.802;2024-02-21T04:48:43;100892.56;;;8.18;100.00
55675;BME280;41562;44.330;23.802;2024-02-21T04:51:11;100890.06;;;6.02;100.00
55675;BME280;41562;44.330;23.802;2024-02-21T04:53:39;100897.25;;;5.47;100.00
55675;BME280;41562;44.330;23.802;2024-02-21T04:56:06;100902.53;;;6.01;100.00
55675;BME280;41562;44.330;23.802;2024-02-21T04:58:37;100904.19;;;5.48;100.00
55675;BME280;41562;44.330;23.802;2024-02-21T05:01:05;100899.97;;;5.22;100.00
55675;BME280;41562;44.330;23.802;2024-02-21T05:03:33;100906.44;;;5.99;100.00
55675;BME280;41562;44.330;23.802;2024-02-21T05:06:00;100903.41;;;5.22;100.00
55675;BME280;41562;44.330;23.802;2024-02-21T05:08:28;100902.44;;;4.99;100.00
55675;BME280;41562;44.330;23.802;2024-02-21T05:10:55;100905.34;;;4.91;100.00
55675;BME280;41562;44.330;23.802;2024-02-21T05:13:22;100906.00;;;4.86;100.00
55675;BME280;41562;44.330;23.802;2024-02-21T05:15:50;100913.47;;;7.70;100.00
55675;BME280;41562;44.330;23.802;2024-02-21T05:18:17;100930.69;;;9.14;100.00
55675;BME280;41562;44.330;23.802;2024-02-21T05:20:45;100926.81;;;9.82;95.64
55675;BME280;41562;44.330;23.802;2024-02-21T05:23:13;100922.59;;;9.25;93.21
55675;BME280;41562;44.330;23.802;2024-02-21T05:25:40;100917.22;;;6.99;100.00
55675;BME280;41562;44.330;23.802;2024-02-21T05:28:07;100923.53;;;6.03;100.00
55675;BME280;41562;44.330;23.802;2024-02-21T05:30:35;100928.53;;;5.56;100.00
55675;BME280;41562;44.330;23.802;2024-02-21T05:33:06;100930.69;;;5.30;100.00
55675;BME280;41562;44.330;23.802;2024-02-21T05:35:35;100928.38;;;5.15;100.00
55675;BME280;41562;44.330;23.802;2024-02-21T05:38:02;100934.28;;;5.35;100.00
55675;BME280;41562;44.330;23.802;2024-02-21T05:40:30;100926.16;;;5.12;100.00
55675;BME280;41562;44.330;23.802;2024-02-21T05:42:57;100924.16;;;5.07;100.00
55675;BME280;41562;44.330;23.802;2024-02-21T05:45:24;100929.25;;;5.09;100.00
55675;BME280;41562;44.330;23.802;2024-02-21T05:47:52;100927.00;;;5.31;100.00
55675;BME280;41562;44.330;23.802;2024-02-21T05:50:19;100935.38;;;5.28;100.00
55675;BME280;41562;44.330;23.802;2024-02-21T05:52:46;100938.06;;;5.46;100.00
55675;BME280;41562;44.330;23.802;2024-02-21T05:55:14;100945.41;;;5.44;100.00
55675;BME280;41562;44.330;23.802;2024-02-21T05:57:41;100935.28;;;5.16;100.00
55675;BME280;41562;44.330;23.802;2024-02-21T06:00:09;100934.31;;;5.10;100.00
55675;BME280;41562;44.330;23.802;2024-02-21T06:02:36;100936.50;;;4.95;100.00
55675;BME280;41562;44.330;23.802;2024-02-21T06:05:04;100937.31;;;4.96;100.00
55675;BME280;41562;44.330;23.802;2024-02-21T06:07:31;100947.09;;;4.95;100.00
55675;BME280;41562;44.330;23.802;2024-02-21T06:09:59;100943.03;;;5.17;100.00
55675;BME280;41562;44.330;23.802;2024-02-21T06:12:26;100953.66;;;5.36;100.00
55675;BME280;41562;44.330;23.802;2024-02-21T06:14:54;100959.94;;;5.59;100.00
55675;BME280;41562;44.330;23.802;2024-02-21T06:17:21;100957.88;;;5.43;100.00
55675;BME280;41562;44.330;23.802;2024-02-21T06:19:49;100963.25;;;5.37;100.00
55675;BME280;41562;44.330;23.802;2024-02-21T06:22:17;100965.47;;;5.15;100.00
55675;BME280;41562;44.330;23.802;2024-02-21T06:24:45;100965.16;;;5.30;100.00
55675;BME280;41562;44.330;23.802;2024-02-21T06:27:12;100963.38;;;5.23;100.00
55675;BME280;41562;44.330;23.802;2024-02-21T06:29:40;100957.69;;;5.20;100.00
55675;BME280;41562;44.330;23.802;2024-02-21T06:32:08;100961.28;;;5.25;100.00
55675;BME280;41562;44.330;23.802;2024-02-21T06:34:36;100958.16;;;5.35;100.00
55675;BME280;41562;44.330;23.802;2024-02-21T06:37:04;100956.47;;;5.41;100.00
55675;BME280;41562;44.330;23.802;2024-02-21T06:39:32;100954.78;;;5.46;100.00
55675;BME280;41562;44.330;23.802;2024-02-21T06:41:59;100958.31;;;5.58;100.00
55675;BME280;41562;44.330;23.802;2024-02-21T06:44:30;100967.59;;;5.92;100.00
55675;BME280;41562;44.330;23.802;2024-02-21T06:46:57;100964.22;;;5.60;100.00
55675;BME280;41562;44.330;23.802;2024-02-21T06:49:25;100966.06;;;5.42;100.00
55675;BME280;41562;44.330;23.802;2024-02-21T06:51:52;100970.84;;;5.70;100.00
55675;BME280;41562;44.330;23.802;2024-02-21T06:54:19;100965.03;;;5.79;100.00
55675;BME280;41562;44.330;23.802;2024-02-21T06:56:47;100970.50;;;5.66;100.00
55675;BME280;41562;44.330;23.802;2024-02-21T06:59:14;100969.75;;;5.59;100.00
55675;BME280;41562;44.330;23.802;2024-02-21T07:01:54;100973.16;;;5.66;100.00
55675;BME280;41562;44.330;23.802;2024-02-21T07:04:22;100975.44;;;5.81;100.00
55675;BME280;41562;44.330;23.802;2024-02-21T07:06:50;100974.84;;;5.79;100.00
55675;BME280;41562;44.330;23.802;2024-02-21T07:09:17;100978.16;;;5.74;100.00
55675;BME280;41562;44.330;23.802;2024-02-21T07:11:44;100979.00;;;5.93;100.00
55675;BME280;41562;44.330;23.802;2024-02-21T07:14:14;100973.00;;;5.79;100.00
55675;BME280;41562;44.330;23.802;2024-02-21T07:16:41;100978.22;;;6.22;100.00
55675;BME280;41562;44.330;23.802;2024-02-21T07:19:08;100987.09;;;6.76;100.00
55675;BME280;41562;44.330;23.802;2024-02-21T07:21:37;100972.13;;;6.93;100.00
55675;BME280;41562;44.330;23.802;2024-02-21T07:24:04;100983.91;;;6.97;100.00
55675;BME280;41562;44.330;23.802;2024-02-21T07:26:32;100983.25;;;7.48;100.00
55675;BME280;41562;44.330;23.802;2024-02-21T07:28:59;100976.97;;;7.89;100.00
55675;BME280;41562;44.330;23.802;2024-02-21T07:31:27;100977.94;;;8.12;100.00
55675;BME280;41562;44.330;23.802;2024-02-21T07:33:54;100979.38;;;7.91;100.00
55675;BME280;41562;44.330;23.802;2024-02-21T07:36:30;100972.44;;;7.90;100.00
55675;BME280;41562;44.330;23.802;2024-02-21T07:39:00;100976.41;;;8.16;100.00
55675;BME280;41562;44.330;23.802;2024-02-21T07:41:27;100971.56;;;8.13;100.00
55675;BME280;41562;44.330;23.802;2024-02-21T07:43:54;100966.09;;;8.19;100.00
55675;BME280;41562;44.330;23.802;2024-02-21T07:46:22;100976.03;;;8.64;100.00
55675;BME280;41562;44.330;23.802;2024-02-21T07:48:50;100973.94;;;8.99;100.00
55675;BME280;41562;44.330;23.802;2024-02-21T07:51:17;100974.34;;;9.24;98.88
55675;BME280;41562;44.330;23.802;2024-02-21T07:53:45;100977.97;;;9.52;100.00
55675;BME280;41562;44.330;23.802;2024-02-21T07:56:12;100979.84;;;9.35;99.24
55675;BME280;41562;44.330;23.802;2024-02-21T07:58:40;100982.94;;;10.03;95.18
55675;BME280;41562;44.330;23.802;2024-02-21T08:01:08;100982.41;;;10.06;95.47
55675;BME280;41562;44.330;23.802;2024-02-21T08:03:36;100983.25;;;10.29;95.20
55675;BME280;41562;44.330;23.802;2024-02-21T08:06:04;100979.78;;;10.28;93.57
55675;BME280;41562;44.330;23.802;2024-02-21T08:08:32;100971.31;;;11.32;89.49
55675;BME280;41562;44.330;23.802;2024-02-21T08:10:59;100978.03;;;11.35;89.04
55675;BME280;41562;44.330;23.802;2024-02-21T08:13:27;100978.69;;;11.15;92.23
55675;BME280;41562;44.330;23.802;2024-02-21T08:15:54;100969.63;;;11.21;90.22
55675;BME280;41562;44.330;23.802;2024-02-21T08:18:22;100973.09;;;10.84;92.95
55675;BME280;41562;44.330;23.802;2024-02-21T08:20:49;100975.44;;;11.08;92.14
55675;BME280;41562;44.330;23.802;2024-02-21T08:23:18;100965.44;;;11.30;96.20
55675;BME280;41562;44.330;23.802;2024-02-21T08:25:46;100973.28;;;11.42;89.86
55675;BME280;41562;44.330;23.802;2024-02-21T08:28:15;100972.72;;;11.82;89.96
55675;BME280;41562;44.330;23.802;2024-02-21T08:30:43;100972.03;;;11.17;90.15
55675;BME280;41562;44.330;23.802;2024-02-21T08:33:11;100972.16;;;11.75;88.20
55675;BME280;41562;44.330;23.802;2024-02-21T08:35:39;100969.34;;;11.59;88.33
55675;BME280;41562;44.330;23.802;2024-02-21T08:38:06;100971.50;;;11.20;91.09
55675;BME280;41562;44.330;23.802;2024-02-21T08:40:34;100962.72;;;11.72;88.77
55675;BME280;41562;44.330;23.802;2024-02-21T08:43:01;100964.91;;;11.33;91.86
55675;BME280;41562;44.330;23.802;2024-02-21T08:45:29;100968.81;;;11.15;92.70
55675;BME280;41562;44.330;23.802;2024-02-21T08:47:56;100970.38;;;11.48;91.42
55675;BME280;41562;44.330;23.802;2024-02-21T08:50:24;100964.78;;;11.55;90.24
55675;BME280;41562;44.330;23.802;2024-02-21T08:52:55;100960.25;;;12.07;95.76
55675;BME280;41562;44.330;23.802;2024-02-21T08:55:23;100966.91;;;11.95;90.98
55675;BME280;41562;44.330;23.802;2024-02-21T08:57:51;100977.09;;;12.08;89.52
55675;BME280;41562;44.330;23.802;2024-02-21T09:00:19;100970.81;;;12.60;87.80
55675;BME280;41562;44.330;23.802;2024-02-21T09:02:46;100968.16;;;12.70;86.82
55675;BME280;41562;44.330;23.802;2024-02-21T09:05:15;100968.09;;;12.39;89.14
55675;BME280;41562;44.330;23.802;2024-02-21T09:07:43;100965.88;;;12.11;90.56
55675;BME280;41562;44.330;23.802;2024-02-21T09:10:10;100970.13;;;12.02;90.59
55675;BME280;41562;44.330;23.802;2024-02-21T09:12:38;100965.84;;;12.01;92.07
55675;BME280;41562;44.330;23.802;2024-02-21T09:15:06;100964.81;;;12.12;91.72
55675;BME280;41562;44.330;23.802;2024-02-21T09:17:34;100971.06;;;12.33;88.99
55675;BME280;41562;44.330;23.802;2024-02-21T09:20:01;100962.06;;;11.92;91.37
55675;BME280;41562;44.330;23.802;2024-02-21T09:22:29;100963.50;;;12.20;88.46
55675;BME280;41562;44.330;23.802;2024-02-21T09:24:57;100958.25;;;11.83;90.77
55675;BME280;41562;44.330;23.802;2024-02-21T09:27:24;100964.56;;;12.24;90.08
55675;BME280;41562;44.330;23.802;2024-02-21T09:29:52;100959.03;;;13.32;86.24
55675;BME280;41562;44.330;23.802;2024-02-21T09:32:19;100960.03;;;13.66;91.56
55675;BME280;41562;44.330;23.802;2024-02-21T09:34:47;100961.72;;;13.37;85.43
55675;BME280;41562;44.330;23.802;2024-02-21T09:37:14;100967.38;;;13.00;85.29
55675;BME280;41562;44.330;23.802;2024-02-21T09:39:42;100963.59;;;12.90;85.43
55675;BME280;41562;44.330;23.802;2024-02-21T09:42:11;100969.50;;;13.03;84.61
55675;BME280;41562;44.330;23.802;2024-02-21T09:44:39;100956.09;;;13.28;85.85
55675;BME280;41562;44.330;23.802;2024-02-21T09:47:19;100963.34;;;13.38;82.23
55675;BME280;41562;44.330;23.802;2024-02-21T09:49:48;100966.03;;;13.02;84.77
55675;BME280;41562;44.330;23.802;2024-02-21T09:52:16;100952.06;;;12.95;84.95
55675;BME280;41562;44.330;23.802;2024-02-21T09:54:45;100953.94;;;13.00;87.03
55675;BME280;41562;44.330;23.802;2024-02-21T09:57:13;100952.03;;;12.60;87.60
55675;BME280;41562;44.330;23.802;2024-02-21T09:59:40;100958.75;;;12.57;87.17
55675;BME280;41562;44.330;23.802;2024-02-21T10:02:08;100950.41;;;12.38;93.24
55675;BME280;41562;44.330;23.802;2024-02-21T10:04:36;100951.97;;;12.24;90.55
55675;BME280;41562;44.330;23.802;2024-02-21T10:07:03;100952.78;;;12.25;89.21
55675;BME280;41562;44.330;23.802;2024-02-21T10:09:31;100950.06;;;12.15;88.63
55675;BME280;41562;44.330;23.802;2024-02-21T10:12:11;100945.25;;;12.12;90.45
55675;BME280;41562;44.330;23.802;2024-02-21T10:14:41;100942.31;;;12.18;96.34
55675;BME280;41562;44.330;23.802;2024-02-21T10:17:15;100943.94;;;12.19;90.84
55675;BME280;41562;44.330;23.802;2024-02-21T10:19:43;100942.06;;;11.62;92.15
55675;BME280;41562;44.330;23.802;2024-02-21T10:22:11;100929.50;;;11.68;96.46
55675;BME280;41562;44.330;23.802;2024-02-21T10:24:38;100936.41;;;12.16;98.09
55675;BME280;41562;44.330;23.802;2024-02-21T10:27:07;100944.78;;;11.73;90.90
55675;BME280;41562;44.330;23.802;2024-02-21T10:29:35;100937.28;;;11.69;90.68
55675;BME280;41562;44.330;23.802;2024-02-21T10:32:13;100934.59;;;11.69;89.85
55675;BME280;41562;44.330;23.802;2024-02-21T10:34:42;100923.94;;;11.75;92.57
55675;BME280;41562;44.330;23.802;2024-02-21T10:37:11;100919.38;;;11.75;95.67
55675;BME280;41562;44.330;23.802;2024-02-21T10:39:41;100916.81;;;11.48;92.84
55675;BME280;41562;44.330;23.802;2024-02-21T10:42:11;100907.50;;;11.61;97.02
55675;BME280;41562;44.330;23.802;2024-02-21T10:44:39;100910.56;;;11.80;92.09
55675;BME280;41562;44.330;23.802;2024-02-21T10:47:08;100906.56;;;11.87;91.79
55675;BME280;41562;44.330;23.802;2024-02-21T10:49:41;100906.28;;;11.89;90.34
55675;BME280;41562;44.330;23.802;2024-02-21T10:55:27;100899.41;;;12.23;88.72
55675;BME280;41562;44.330;23.802;2024-02-21T10:57:57;100899.97;;;12.20;89.50
55675;BME280;41562;44.330;23.802;2024-02-21T11:00:26;100898.53;;;11.97;89.82
55675;BME280;41562;44.330;23.802;2024-02-21T11:02:53;100893.22;;;12.07;90.33
55675;BME280;41562;44.330;23.802;2024-02-21T11:05:21;100891.06;;;12.09;90.99
55675;BME280;41562;44.330;23.802;2024-02-21T11:07:49;100893.53;;;12.41;87.28
55675;BME280;41562;44.330;23.802;2024-02-21T11:10:26;100896.75;;;12.33;87.78
55675;BME280;41562;44.330;23.802;2024-02-21T11:13:10;100880.94;;;12.82;97.55
55675;BME280;41562;44.330;23.802;2024-02-21T11:15:38;100880.66;;;13.19;95.49
55675;BME280;41562;44.330;23.802;2024-02-21T11:18:05;100879.47;;;14.54;89.02
55675;BME280;41562;44.330;23.802;2024-02-21T11:20:38;100885.59;;;13.72;84.08
55675;BME280;41562;44.330;23.802;2024-02-21T11:23:06;100877.69;;;13.16;84.10
55675;BME280;41562;44.330;23.802;2024-02-21T11:25:33;100872.09;;;12.77;85.23
55675;BME280;41562;44.330;23.802;2024-02-21T11:28:03;100865.13;;;12.76;86.29
55675;BME280;41562;44.330;23.802;2024-02-21T11:30:32;100861.38;;;12.57;85.42
55675;BME280;41562;44.330;23.802;2024-02-21T11:33:03;100859.22;;;12.69;85.65
55675;BME280;41562;44.330;23.802;2024-02-21T11:35:34;100854.88;;;13.03;82.02
55675;BME280;41562;44.330;23.802;2024-02-21T11:40:40;100846.53;;;14.62;88.34
55675;BME280;41562;44.330;23.802;2024-02-21T11:43:08;100849.94;;;15.25;75.40
55675;BME280;41562;44.330;23.802;2024-02-21T11:45:36;100844.94;;;15.38;74.15
55675;BME280;41562;44.330;23.802;2024-02-21T11:48:05;100850.19;;;15.53;72.38
55675;BME280;41562;44.330;23.802;2024-02-21T11:50:35;100840.81;;;15.69;71.91
55675;BME280;41562;44.330;23.802;2024-02-21T11:53:02;100838.06;;;15.50;71.51
55675;BME280;41562;44.330;23.802;2024-02-21T11:55:30;100838.19;;;15.83;69.72
55675;BME280;41562;44.330;23.802;2024-02-21T11:57:58;100830.84;;;16.07;69.70
55675;BME280;41562;44.330;23.802;2024-02-21T12:00:26;100831.63;;;16.91;66.95
55675;BME280;41562;44.330;23.802;2024-02-21T12:02:54;100826.63;;;16.84;66.82
55675;BME280;41562;44.330;23.802;2024-02-21T12:05:22;100823.72;;;16.48;67.35
55675;BME280;41562;44.330;23.802;2024-02-21T12:07:49;100819.03;;;16.03;67.44
55675;BME280;41562;44.330;23.802;2024-02-21T12:10:17;100817.72;;;16.00;69.08
55675;BME280;41562;44.330;23.802;2024-02-21T12:12:45;100815.78;;;16.38;66.98
55675;BME280;41562;44.330;23.802;2024-02-21T12:15:12;100808.41;;;16.90;65.26
55675;BME280;41562;44.330;23.802;2024-02-21T12:17:40;100801.19;;;16.72;65.50
55675;BME280;41562;44.330;23.802;2024-02-21T12:20:08;100800.00;;;16.78;64.92
55675;BME280;41562;44.330;23.802;2024-02-21T12:22:36;100802.28;;;16.71;64.45
55675;BME280;41562;44.330;23.802;2024-02-21T12:25:16;100797.38;;;16.40;65.71
55675;BME280;41562;44.330;23.802;2024-02-21T12:27:43;100794.53;;;16.18;65.76
55675;BME280;41562;44.330;23.802;2024-02-21T12:30:11;100789.34;;;16.22;67.06
55675;BME280;41562;44.330;23.802;2024-02-21T12:32:38;100784.38;;;16.29;65.60
55675;BME280;41562;44.330;23.802;2024-02-21T12:35:06;100780.56;;;15.79;67.55
55675;BME280;41562;44.330;23.802;2024-02-21T12:37:34;100777.13;;;15.92;66.80
55675;BME280;41562;44.330;23.802;2024-02-21T12:40:06;100774.28;;;16.02;67.18
55675;BME280;41562;44.330;23.802;2024-02-21T12:42:34;100770.78;;;15.83;67.43
55675;BME280;41562;44.330;23.802;2024-02-21T12:45:02;100766.41;;;15.68;67.97
55675;BME280;41562;44.330;23.802;2024-02-21T12:47:30;100768.69;;;15.37;67.03
55675;BME280;41562;44.330;23.802;2024-02-21T12:49:58;100760.25;;;14.54;71.17